Time;durP1;ratioP1;P1;durP2;ratioP2;P2;SDS_P1;SDS_P2;PMS_P1;PMS_P2;Temp;Humidity;BMP_temperature;BMP_pressure;BME280_temperature;BME280_humidity;BME280_pressure;Samples;Min_cycle;Max_cycle;Signal;HPM_P1;HPM_P2
2024/04/02 00:01:32;;;;;;;36.90;6.50;;;;;;;17.19;44.03;97545.39;102595;1293;599474;-25
2024/04/02 00:04:13;;;;;;;30.30;6.40;;;;;;;17.47;43.64;97541.14;104847;1266;61113;-25
2024/04/02 00:06:40;;;;;;;35.10;6.20;;;;;;;17.45;43.53;97544.33;104850;1266;61247;-25
2024/04/02 00:09:08;;;;;;;41.80;7.40;;;;;;;17.30;43.90;97537.27;105648;1259;72028;-26
2024/04/02 00:11:36;;;;;;;35.00;6.70;;;;;;;17.23;44.09;97532.57;105635;1253;73206;-25
2024/04/02 00:14:04;;;;;;;31.80;7.00;;;;;;;17.41;43.78;97527.88;102238;1256;4693723;-26
2024/04/02 00:16:31;;;;;;;32.70;6.20;;;;;;;17.56;43.43;97520.21;105730;1255;61186;-25
2024/04/02 00:18:59;;;;;;;45.90;6.30;;;;;;;17.44;43.38;97521.54;105882;1251;72962;-25
2024/04/02 00:21:26;;;;;;;28.40;6.40;;;;;;;17.48;43.41;97520.11;105692;1257;74316;-26
2024/04/02 00:23:54;;;;;;;36.50;6.60;;;;;;;17.66;42.89;97514.35;105610;1257;72634;-26
2024/04/02 00:34:04;;;;;;;39.60;6.80;;;;;;;17.52;43.88;97509.02;102603;1294;600308;-26
2024/04/02 00:36:31;;;;;;;37.00;5.80;;;;;;;17.52;43.73;97511.92;104812;1267;61343;-26
2024/04/02 00:38:59;;;;;;;32.50;6.10;;;;;;;17.17;44.39;97514.98;104818;1271;61138;-26
2024/04/02 00:41:27;;;;;;;28.70;6.00;;;;;;;17.39;44.00;97508.48;104854;1265;72913;-26
2024/04/02 00:43:54;;;;;;;33.10;6.50;;;;;;;17.64;43.38;97506.50;104806;1272;74357;-26
2024/04/02 00:46:22;;;;;;;30.00;5.80;;;;;;;17.75;43.32;97508.40;104795;1272;72733;-26
2024/04/02 00:48:51;;;;;;;24.20;5.70;;;;;;;17.82;43.37;97510.11;101393;1269;4801106;-26
2024/04/02 00:51:18;;;;;;;38.20;8.20;;;;;;;17.92;42.95;97507.52;105173;1267;61185;-26
2024/04/02 00:53:46;;;;;;;31.70;7.10;;;;;;;18.02;42.68;97508.61;104854;1264;73116;-26
2024/04/02 01:02:37;;;;;;;34.40;5.80;;;;;;;17.57;43.59;97510.48;102555;1296;600291;-25
2024/04/02 01:05:05;;;;;;;39.40;6.70;;;;;;;17.38;43.91;97511.29;104784;1273;61328;-26
2024/04/02 01:07:34;;;;;;;22.30;4.70;;;;;;;17.26;43.90;97501.08;104805;1271;61286;-25
2024/04/02 01:10:02;;;;;;;32.90;5.90;;;;;;;17.12;44.59;97496.46;104683;1273;72997;-25
2024/04/02 01:12:30;;;;;;;27.70;6.40;;;;;;;17.10;44.48;97491.11;104797;1273;73103;-25
2024/04/02 01:21:21;;;;;;;25.30;6.50;;;;;;;17.08;44.67;97481.98;102636;1290;601159;-26
2024/04/02 01:23:49;;;;;;;36.50;6.40;;;;;;;16.99;44.85;97480.49;104846;1266;60993;-29
2024/04/02 01:26:16;;;;;;;31.30;6.00;;;;;;;16.88;44.85;97479.42;104844;1269;61180;-27
2024/04/02 01:28:44;;;;;;;33.40;6.60;;;;;;;16.88;44.76;97472.47;104831;1271;72974;-27
2024/04/02 01:31:11;;;;;;;36.80;7.50;;;;;;;16.85;44.68;97469.31;105276;1264;73465;-27
2024/04/02 01:41:21;;;;;;;36.70;7.20;;;;;;;16.50;45.60;97451.08;102611;1293;599933;-26
2024/04/02 01:43:49;;;;;;;37.00;6.20;;;;;;;16.49;45.67;97447.44;104836;1267;61147;-25
2024/04/02 01:46:16;;;;;;;38.80;6.00;;;;;;;16.46;45.69;97442.02;104830;1267;61179;-25
2024/04/02 01:48:44;;;;;;;31.40;6.50;;;;;;;16.38;46.09;97439.10;104818;1267;73021;-26
2024/04/02 01:51:12;;;;;;;35.90;6.20;;;;;;;16.30;46.32;97437.66;104822;1270;74305;-26
2024/04/02 01:53:39;;;;;;;42.70;7.70;;;;;;;16.23;46.77;97431.50;104870;1267;71380;-26
2024/04/02 01:56:07;;;;;;;31.90;5.20;;;;;;;16.23;46.84;97424.20;101566;1262;4733033;-26
2024/04/02 01:58:34;;;;;;;26.80;5.20;;;;;;;16.22;46.97;97415.63;105053;1269;61228;-26
2024/04/02 02:01:02;;;;;;;25.20;6.60;;;;;;;16.17;46.91;97410.58;105109;1268;72969;-26
2024/04/02 02:03:29;;;;;;;30.90;5.50;;;;;;;16.09;46.92;97405.00;104828;1266;74319;-27
2024/04/02 02:13:41;;;;;;;24.70;4.60;;;;;;;15.74;47.67;97392.95;102600;1293;600161;-25
2024/04/02 02:16:08;;;;;;;25.90;5.40;;;;;;;15.65;47.97;97390.14;104815;1270;61193;-26
2024/04/02 02:26:22;;;;;;;34.70;5.80;;;;;;;15.54;48.51;97374.59;102574;1292;601285;-27
2024/04/02 02:36:32;;;;;;;29.40;6.30;;;;;;;15.25;49.54;97379.48;102564;1292;600288;-25
2024/04/02 02:38:59;;;;;;;29.70;6.70;;;;;;;15.25;49.23;97378.75;104820;1269;61059;-25
2024/04/02 02:49:10;;;;;;;31.60;7.80;;;;;;;15.10;50.26;97360.25;102602;1293;600245;-25
2024/04/02 02:51:38;;;;;;;33.30;6.90;;;;;;;15.09;49.85;97361.41;104822;1269;62598;-26
2024/04/02 02:54:05;;;;;;;23.70;6.40;;;;;;;15.05;50.37;97356.89;104829;1267;61059;-25
2024/04/02 02:56:33;;;;;;;31.50;8.60;;;;;;;14.99;49.76;97352.32;104828;1270;72990;-25
2024/04/02 02:59:00;;;;;;;39.40;7.00;;;;;;;14.95;49.71;97351.05;104690;1267;74306;-25
2024/04/02 03:08:24;;;;;;;28.40;5.80;;;;;;;14.82;50.43;97351.74;102531;1292;600230;-25
2024/04/02 03:18:36;;;;;;;36.90;8.90;;;;;;;14.76;50.61;97333.13;102560;1295;600253;-26
2024/04/02 03:21:04;;;;;;;34.30;6.60;;;;;;;14.71;51.77;97329.16;104902;1270;61181;-25
2024/04/02 03:23:32;;;;;;;30.10;7.20;;;;;;;14.65;51.42;97322.65;104887;1267;61120;-25
2024/04/02 03:33:17;;;;;;;32.60;8.80;;;;;;;14.05;52.25;97322.27;102576;1294;600872;-25
2024/04/02 03:35:45;;;;;;;26.40;7.80;;;;;;;14.01;52.34;97317.65;104854;1270;61014;-25
2024/04/02 03:38:13;;;;;;;35.40;7.30;;;;;;;14.04;52.40;97308.97;104795;1271;61216;-25
2024/04/02 03:40:41;;;;;;;31.60;7.40;;;;;;;14.18;52.23;97300.96;104850;1270;71861;-25
2024/04/02 03:43:09;;;;;;;35.40;7.50;;;;;;;14.20;51.85;97301.96;104856;1270;74453;-27
2024/04/02 03:45:40;;;;;;;33.20;6.90;;;;;;;14.18;51.87;97302.50;104782;1268;72695;-29
2024/04/02 03:48:08;;;;;;;24.50;5.90;;;;;;;14.06;52.44;97295.39;101726;1269;61223;-26
2024/04/02 03:58:25;;;;;;;36.00;7.20;;;;;;;14.10;53.59;97294.20;102526;1292;600020;-25
2024/04/02 04:08:37;;;;;;;22.30;5.40;;;;;;;14.19;53.66;97271.55;102551;1292;600811;-26
2024/04/02 04:11:05;;;;;;;31.10;7.40;;;;;;;14.20;53.77;97262.85;104864;1266;61245;-25
2024/04/02 04:21:09;;;;;;;26.30;6.50;;;;;;;14.35;53.38;97247.69;102614;1294;600370;-25
2024/04/02 04:23:37;;;;;;;38.40;7.40;;;;;;;14.36;53.48;97251.79;105105;1267;61078;-25
2024/04/02 04:26:07;;;;;;;21.10;4.40;;;;;;;14.26;53.72;97273.96;104845;1264;61142;-25
2024/04/02 04:36:18;;;;;;;27.00;6.30;;;;;;;13.66;56.13;97265.38;102576;1293;600157;-25
2024/04/02 04:38:46;;;;;;;33.00;6.90;;;;;;;13.71;55.93;97253.54;104818;1267;61180;-26
2024/04/02 04:41:13;;;;;;;38.90;6.80;;;;;;;13.85;56.00;97249.98;104879;1267;61625;-26
2024/04/02 04:43:41;;;;;;;31.50;6.60;;;;;;;14.04;55.94;97245.53;104816;1273;73003;-26
2024/04/02 04:46:09;;;;;;;24.30;6.00;;;;;;;14.24;55.39;97241.05;104786;1270;73094;-28
2024/04/02 04:56:20;;;;;;;29.90;5.50;;;;;;;15.07;54.62;97215.75;102622;1293;599399;-27
2024/04/02 04:58:47;;;;;;;21.70;4.70;;;;;;;15.28;54.05;97214.21;105015;1269;61117;-26
2024/04/02 05:08:52;;;;;;;24.90;5.60;;;;;;;16.10;52.99;97204.70;102605;1293;600117;-25
2024/04/02 05:11:21;;;;;;;31.20;6.90;;;;;;;16.25;52.84;97204.73;104851;1267;61061;-25
2024/04/02 05:13:50;;;;;;;33.10;5.70;;;;;;;16.49;52.40;97200.70;105070;1267;61159;-26
2024/04/02 05:16:18;;;;;;;30.40;7.00;;;;;;;16.64;52.09;97199.38;104822;1267;72930;-26
2024/04/02 05:18:46;;;;;;;33.60;6.70;;;;;;;16.71;52.26;97205.53;104863;1269;74313;-26
2024/04/02 05:21:14;;;;;;;26.40;6.00;;;;;;;16.86;52.23;97201.85;104791;1267;72672;-26
2024/04/02 05:23:41;;;;;;;26.90;6.00;;;;;;;17.00;52.05;97196.34;101512;1269;61214;-27
2024/04/02 05:26:09;;;;;;;34.00;6.40;;;;;;;17.10;51.68;97198.80;105157;1269;71768;-26
2024/04/02 05:28:37;;;;;;;17.50;4.60;;;;;;;17.21;51.26;97190.79;105110;1264;74315;-26
2024/04/02 05:31:05;;;;;;;32.80;5.70;;;;;;;17.24;50.95;97188.24;105166;1267;72640;-26
2024/04/02 05:33:32;;;;;;;32.70;6.40;;;;;;;17.25;50.78;97190.14;105091;1263;61148;-26
2024/04/02 05:43:37;;;;;;;30.70;5.20;;;;;;;17.79;49.91;97172.00;102648;1295;599886;-26
2024/04/02 05:46:04;;;;;;;32.80;6.30;;;;;;;17.89;49.83;97166.14;105556;1260;61103;-26
2024/04/02 05:48:32;;;;;;;33.60;5.40;;;;;;;18.01;49.37;97154.83;105386;1258;61130;-26
2024/04/02 05:51:00;;;;;;;28.60;5.00;;;;;;;18.17;49.12;97148.02;105491;1261;71835;-26
2024/04/02 05:53:28;;;;;;;26.00;5.80;;;;;;;18.30;48.88;97144.99;105338;1260;73153;-26
2024/04/02 05:55:56;;;;;;;36.50;6.10;;;;;;;18.39;48.42;97136.43;105360;1260;74253;-26
2024/04/02 05:58:24;;;;;;;42.50;9.50;;;;;;;18.56;48.22;97133.09;101884;1257;5025473;-26
2024/04/02 06:01:01;;;;;;;30.90;5.30;;;;;;;18.73;47.62;97128.98;105572;1257;61119;-25
2024/04/02 06:03:29;;;;;;;13.30;4.10;;;;;;;18.84;47.28;97121.30;105529;1257;71080;-26
2024/04/02 06:06:00;;;;;;;27.80;5.00;;;;;;;18.89;46.97;97123.68;105248;1257;74273;-26
2024/04/02 06:08:27;;;;;;;16.60;6.20;;;;;;;18.98;46.71;97119.91;105253;1257;73934;-26
2024/04/02 06:10:55;;;;;;;10.00;3.90;;;;;;;19.02;46.37;97112.09;105519;1263;62044;-25
2024/04/02 06:13:23;;;;;;;42.30;7.80;;;;;;;19.03;46.00;97109.38;105493;1263;61351;-25
2024/04/02 06:15:50;;;;;;;26.70;5.50;;;;;;;19.20;46.04;97103.21;105513;1263;75361;-26
2024/04/02 06:18:19;;;;;;;39.40;6.70;;;;;;;19.26;45.87;97093.09;105441;1257;74294;-26
2024/04/02 06:20:56;;;;;;;24.30;4.50;;;;;;;19.44;46.16;97085.71;105523;1258;74105;-26
2024/04/02 06:23:24;;;;;;;30.00;5.50;;;;;;;19.53;45.81;97078.41;105252;1260;62608;-26
2024/04/02 06:25:52;;;;;;;38.30;8.30;;;;;;;19.59;45.14;97077.85;105546;1257;63070;-25
2024/04/02 06:28:20;;;;;;;23.80;5.60;;;;;;;19.77;44.94;97071.73;105490;1262;76625;-26
2024/04/02 06:30:47;;;;;;;24.60;4.20;;;;;;;19.93;44.86;97069.59;105501;1262;77157;-27
2024/04/02 06:33:15;;;;;;;29.30;6.40;;;;;;;19.99;44.40;97068.91;105120;1257;75553;-26
2024/04/02 06:35:43;;;;;;;33.60;5.00;;;;;;;20.12;43.88;97060.65;105239;1261;61768;-26
2024/04/02 06:38:10;;;;;;;38.20;5.90;;;;;;;20.29;44.04;97055.57;105499;1257;61462;-27
2024/04/02 06:40:38;;;;;;;35.00;6.30;;;;;;;20.51;43.22;97047.97;105520;1260;75559;-27
2024/04/02 06:43:06;;;;;;;36.10;5.50;;;;;;;20.63;42.70;97038.61;105515;1257;75709;-27
2024/04/02 06:45:35;;;;;;;32.70;5.90;;;;;;;20.70;42.39;97038.30;105435;1260;74983;-27
2024/04/02 06:48:04;;;;;;;38.40;7.10;;;;;;;20.89;42.34;97041.01;105523;1257;61138;-27
2024/04/02 06:50:32;;;;;;;40.00;6.50;;;;;;;21.13;41.91;97039.40;105368;1257;61803;-27
2024/04/02 06:52:59;;;;;;;43.50;8.40;;;;;;;21.26;41.44;97035.61;105472;1263;76412;-27
2024/04/02 06:55:29;;;;;;;53.70;9.50;;;;;;;21.44;40.78;97033.30;105470;1257;76035;-27
2024/04/02 06:57:57;;;;;;;29.40;5.80;;;;;;;21.68;40.53;97029.44;105278;1260;75440;-27
2024/04/02 07:00:24;;;;;;;49.50;10.50;;;;;;;21.86;40.22;97024.77;105480;1260;61507;-27
2024/04/02 07:02:53;;;;;;;45.70;9.20;;;;;;;22.07;40.03;97019.70;105455;1257;61166;-27
2024/04/02 07:05:21;;;;;;;52.40;9.60;;;;;;;22.32;39.68;97010.99;105521;1262;76604;-25
2024/04/02 07:07:48;;;;;;;26.70;7.00;;;;;;;22.42;38.77;97003.52;105473;1258;75507;-25
2024/04/02 07:10:16;;;;;;;35.10;7.10;;;;;;;22.68;38.32;97002.14;105507;1257;74497;-27
2024/04/02 07:12:44;;;;;;;27.40;5.50;;;;;;;22.83;38.43;96999.71;105521;1262;61528;-26
2024/04/02 07:15:12;;;;;;;45.10;9.30;;;;;;;22.89;37.89;96990.30;105484;1257;61447;-26
2024/04/02 07:17:39;;;;;;;43.80;8.80;;;;;;;22.93;37.43;96978.13;105511;1257;76469;-26
2024/04/02 07:20:07;;;;;;;32.80;6.20;;;;;;;23.08;37.32;96975.71;105454;1262;76007;-26
2024/04/02 07:22:35;;;;;;;45.90;9.50;;;;;;;23.33;37.04;96969.73;105258;1264;75126;-26
2024/04/02 07:25:03;;;;;;;28.20;5.40;;;;;;;23.39;36.22;96967.77;105537;1259;62804;-26
2024/04/02 07:27:33;;;;;;;41.00;8.70;;;;;;;23.39;35.89;96963.64;105501;1257;61491;-26
2024/04/02 07:30:01;;;;;;;46.20;10.00;;;;;;;23.39;35.88;96960.07;105485;1262;75237;-27
2024/04/02 07:32:29;;;;;;;42.00;9.00;;;;;;;23.44;35.90;96955.83;105513;1262;78132;-27
2024/04/02 07:34:57;;;;;;;53.20;9.80;;;;;;;23.46;36.19;96954.63;105301;1257;74265;-27
2024/04/02 07:37:26;;;;;;;47.90;9.40;;;;;;;23.79;36.34;96951.70;105401;1262;62517;-26
2024/04/02 07:39:54;;;;;;;47.50;9.60;;;;;;;23.88;35.60;96949.86;105532;1258;62899;-26
2024/04/02 07:42:23;;;;;;;49.00;9.10;;;;;;;24.13;35.39;96945.45;105504;1260;75301;-26
2024/04/02 07:44:51;;;;;;;46.50;8.40;;;;;;;24.21;35.32;96940.04;105528;1262;76739;-26
2024/04/02 07:47:19;;;;;;;43.20;9.40;;;;;;;24.29;34.95;96931.37;105447;1262;75545;-26
2024/04/02 07:49:46;;;;;;;46.50;9.40;;;;;;;24.31;34.21;96925.56;105449;1258;63926;-26
2024/04/02 07:52:14;;;;;;;46.10;9.50;;;;;;;24.29;33.82;96921.05;105471;1257;61454;-26
2024/04/02 07:54:42;;;;;;;43.30;9.40;;;;;;;24.60;33.82;96915.98;105463;1257;75634;-26
2024/04/02 07:57:09;;;;;;;48.10;9.20;;;;;;;24.81;34.20;96903.81;105424;1263;76801;-26
2024/04/02 07:59:37;;;;;;;35.50;9.00;;;;;;;25.06;33.47;96900.77;105456;1263;72984;-26
2024/04/02 08:02:05;;;;;;;30.60;5.30;;;;;;;25.27;32.63;96896.91;105424;1257;62832;-26
2024/04/02 08:04:33;;;;;;;38.70;7.80;;;;;;;25.31;31.71;96890.98;105484;1262;62820;-26
2024/04/02 08:07:00;;;;;;;44.70;10.00;;;;;;;25.11;30.87;96884.26;105451;1258;75682;-26
2024/04/02 08:09:28;;;;;;;46.00;8.80;;;;;;;25.33;31.55;96875.58;105469;1257;77505;-26
2024/04/02 08:11:56;;;;;;;50.50;9.20;;;;;;;25.49;30.71;96870.40;105229;1260;75366;-26
2024/04/02 08:14:28;;;;;;;43.80;9.10;;;;;;;25.73;31.45;96860.59;105454;1257;61834;-27
2024/04/02 08:16:56;;;;;;;36.90;9.20;;;;;;;26.21;31.72;96853.73;105481;1258;61710;-26
2024/04/02 08:19:24;;;;;;;41.30;8.70;;;;;;;26.48;31.27;96845.55;105458;1262;77801;-26
2024/04/02 08:21:52;;;;;;;40.80;9.70;;;;;;;26.66;30.51;96846.52;105479;1257;75087;-26
2024/04/02 08:24:19;;;;;;;40.60;8.30;;;;;;;26.66;30.17;96854.00;105436;1257;74144;-26
2024/04/02 08:26:47;;;;;;;50.70;9.50;;;;;;;26.83;29.75;96851.63;105415;1262;62277;-26
2024/04/02 08:29:15;;;;;;;42.60;9.40;;;;;;;27.08;29.49;96844.10;105093;1257;62677;-26
2024/04/02 08:31:43;;;;;;;44.10;8.10;;;;;;;27.11;29.35;96845.91;105382;1257;75773;-26
2024/04/02 08:34:11;;;;;;;55.30;10.00;;;;;;;27.29;29.61;96851.83;105396;1257;76841;-26
2024/04/02 08:36:39;;;;;;;40.70;8.40;;;;;;;27.60;29.59;96849.34;105240;1260;75396;-26
2024/04/02 08:39:06;;;;;;;53.10;9.80;;;;;;;27.61;28.69;96856.39;105251;1257;62845;-27
2024/04/02 08:41:39;;;;;;;58.50;10.30;;;;;;;27.55;28.96;96856.30;105136;1263;61443;-26
2024/04/02 08:44:06;;;;;;;48.50;11.00;;;;;;;27.72;28.77;96854.34;105282;1257;75076;-26
2024/04/02 08:46:34;;;;;;;42.60;9.40;;;;;;;28.00;28.49;96854.23;105494;1258;77137;-28
2024/04/02 08:49:02;;;;;;;41.00;9.30;;;;;;;27.97;28.06;96849.58;105206;1263;75157;-25
2024/04/02 08:51:30;;;;;;;50.60;9.10;;;;;;;27.69;26.70;96848.55;105500;1257;61860;-27
2024/04/02 08:53:58;;;;;;;44.30;8.50;;;;;;;27.07;27.68;96846.56;105540;1262;62983;-26
2024/04/02 08:56:26;;;;;;;51.20;8.70;;;;;;;27.01;27.91;96841.55;105450;1257;76565;-27
2024/04/02 08:58:54;;;;;;;51.70;9.70;;;;;;;27.19;27.90;96840.42;105346;1257;77373;-26
2024/04/02 09:01:22;;;;;;;30.70;7.60;;;;;;;27.07;27.71;96837.11;105178;1257;74170;-25
2024/04/02 09:03:49;;;;;;;44.70;8.10;;;;;;;27.12;27.66;96838.16;105245;1257;61893;-25
2024/04/02 09:06:17;;;;;;;47.50;9.00;;;;;;;27.27;27.27;96837.11;105234;1265;62858;-25
2024/04/02 09:08:45;;;;;;;45.60;8.60;;;;;;;27.46;26.95;96832.00;105464;1257;73939;-27
2024/04/02 09:11:14;;;;;;;42.60;8.60;;;;;;;27.38;27.01;96824.52;105316;1265;76422;-26
2024/04/02 09:13:41;;;;;;;48.80;8.90;;;;;;;27.78;27.06;96823.14;105344;1257;75585;-26
2024/04/02 09:16:10;;;;;;;47.80;9.30;;;;;;;27.69;26.99;96817.66;105442;1257;63128;-26
2024/04/02 09:18:40;;;;;;;44.20;8.70;;;;;;;27.46;27.22;96814.15;105533;1257;61211;-27
2024/04/02 09:21:08;;;;;;;48.90;9.10;;;;;;;27.71;26.79;96803.52;105496;1262;75608;-27
2024/04/02 09:23:36;;;;;;;36.20;7.20;;;;;;;27.95;26.81;96796.82;105227;1263;76499;-26
2024/04/02 09:26:03;;;;;;;43.20;9.20;;;;;;;27.99;26.45;96795.67;105450;1262;76740;-26
2024/04/02 09:28:31;;;;;;;47.10;9.70;;;;;;;27.78;27.13;96791.81;105283;1257;61878;-26
2024/04/02 09:30:59;;;;;;;48.10;9.30;;;;;;;27.79;26.60;96788.59;105507;1257;62134;-26
2024/04/02 09:33:28;;;;;;;45.70;8.90;;;;;;;27.78;26.56;96781.17;105488;1262;76598;-26
2024/04/02 09:36:13;;;;;;;47.00;9.10;;;;;;;27.66;26.77;96779.60;105550;1257;76249;-27
2024/04/02 09:38:41;;;;;;;39.80;8.80;;;;;;;27.87;27.08;96783.84;105278;1257;75558;-26
2024/04/02 09:41:09;;;;;;;38.10;7.80;;;;;;;28.14;26.81;96780.95;105496;1257;62878;-27
2024/04/02 09:43:36;;;;;;;43.70;7.50;;;;;;;28.00;26.23;96772.77;105254;1257;61580;-26
2024/04/02 09:46:04;;;;;;;33.20;8.00;;;;;;;28.18;25.98;96769.73;105495;1258;76138;-27
2024/04/02 09:48:38;;;;;;;38.20;7.60;;;;;;;28.35;26.05;96770.36;105474;1262;76662;-26
2024/04/02 09:51:05;;;;;;;51.20;9.20;;;;;;;28.24;25.92;96764.41;105511;1257;73703;-26
2024/04/02 09:53:34;;;;;;;41.70;10.70;;;;;;;28.50;26.05;96758.39;105413;1258;61837;-26
2024/04/02 09:56:03;;;;;;;38.40;8.20;;;;;;;28.27;25.74;96751.81;105494;1263;62849;-26
2024/04/02 09:58:30;;;;;;;51.20;9.20;;;;;;;28.10;26.17;96752.66;105286;1265;77116;-27
2024/04/02 10:00:58;;;;;;;41.50;9.20;;;;;;;28.52;25.14;96746.42;105481;1257;76813;-27
2024/04/02 10:03:28;;;;;;;44.70;9.00;;;;;;;28.63;25.17;96744.54;105495;1258;73819;-27
2024/04/02 10:06:03;;;;;;;44.70;9.00;;;;;;;28.87;25.44;96740.52;105497;1262;61746;-26
2024/04/02 10:08:31;;;;;;;44.60;8.30;;;;;;;29.33;24.96;96731.64;105242;1265;62480;-27
2024/04/02 10:11:01;;;;;;;50.50;8.50;;;;;;;29.39;24.36;96727.74;105309;1264;77525;-27
2024/04/02 10:13:39;;;;;;;27.90;7.20;;;;;;;29.63;24.51;96725.92;105260;1257;77278;-27
2024/04/02 10:16:10;;;;;;;47.90;9.40;;;;;;;29.45;23.92;96715.66;105225;1259;75431;-27
2024/04/02 10:18:47;;;;;;;40.00;7.80;;;;;;;29.49;23.50;96722.44;105261;1264;63024;-26
2024/04/02 10:21:16;;;;;;;42.60;8.60;;;;;;;29.72;23.55;96717.55;105499;1259;61329;-26
2024/04/02 10:23:43;;;;;;;35.20;8.40;;;;;;;29.52;23.57;96706.21;105269;1264;77797;-27
2024/04/02 10:26:12;;;;;;;37.60;8.20;;;;;;;29.81;23.69;96702.04;105176;1257;76184;-27
2024/04/02 10:28:42;;;;;;;37.70;7.70;;;;;;;29.45;23.02;96701.80;105215;1257;74088;-27
2024/04/02 10:31:16;;;;;;;45.20;9.10;;;;;;;28.85;23.04;96697.02;105412;1263;61918;-27
2024/04/02 10:33:48;;;;;;;40.30;9.10;;;;;;;28.88;23.02;96690.38;105159;1257;61462;-27
2024/04/02 10:36:15;;;;;;;43.10;8.70;;;;;;;29.12;23.04;96685.48;105265;1258;76919;-27
2024/04/02 10:38:43;;;;;;;45.20;10.20;;;;;;;29.32;22.20;96678.55;105291;1257;77407;-27
2024/04/02 10:41:11;;;;;;;40.10;9.70;;;;;;;29.25;22.18;96667.56;105185;1265;74134;-27
2024/04/02 10:43:39;;;;;;;44.70;8.90;;;;;;;29.21;22.20;96664.06;105255;1264;62846;-26
2024/04/02 10:46:07;;;;;;;40.00;8.10;;;;;;;29.48;22.16;96667.51;105005;1264;61482;-27
2024/04/02 10:48:35;;;;;;;36.60;8.70;;;;;;;29.51;22.57;96663.27;105206;1263;78207;-27
2024/04/02 10:51:05;;;;;;;45.60;9.00;;;;;;;29.87;22.87;96643.77;105269;1265;77829;-26
2024/04/02 10:53:32;;;;;;;39.20;9.10;;;;;;;30.10;22.31;96640.20;105432;1260;74813;-27
2024/04/02 10:56:02;;;;;;;42.70;9.10;;;;;;;29.41;21.83;96638.06;105329;1259;61234;-27
2024/04/02 10:58:30;;;;;;;32.30;7.60;;;;;;;29.00;22.03;96628.67;105269;1257;62209;-27
2024/04/02 11:00:58;;;;;;;34.70;8.20;;;;;;;29.08;22.14;96631.71;105428;1263;77466;-27
2024/04/02 11:03:25;;;;;;;38.00;9.10;;;;;;;29.52;22.22;96628.91;105460;1257;76815;-27
2024/04/02 11:05:53;;;;;;;54.10;10.00;;;;;;;29.40;21.99;96643.45;105404;1262;75018;-26
2024/04/02 11:08:21;;;;;;;53.30;9.30;;;;;;;29.07;23.55;96628.33;105280;1258;61651;-27
2024/04/02 11:10:49;;;;;;;44.10;8.20;;;;;;;28.27;25.11;96647.31;105387;1257;63251;-26
2024/04/02 11:13:27;;;;;;;37.10;7.10;;;;;;;27.39;26.36;96678.36;105403;1262;75866;-27
2024/04/02 11:15:54;;;;;;;34.70;5.20;;;;;;;26.50;27.18;96660.64;105253;1257;76368;-27
2024/04/02 11:18:22;;;;;;;27.00;4.40;;;;;;;25.93;27.69;96683.70;105419;1262;74485;-27
2024/04/02 11:20:57;;;;;;;17.80;4.20;;;;;;;25.41;27.72;96693.88;105464;1263;62520;-27
2024/04/02 11:26:15;;;;;;;17.80;2.60;;;;;;;24.69;28.16;96714.04;105405;1257;75649;-27
2024/04/02 11:28:43;;;;;;;11.50;1.80;;;;;;;24.31;28.55;96721.31;105174;1266;75218;-26
2024/04/02 11:31:11;;;;;;;11.40;2.70;;;;;;;23.84;29.34;96719.86;105364;1263;75793;-27
2024/04/02 11:33:39;;;;;;;9.50;1.50;;;;;;;23.39;30.29;96727.71;105289;1260;62803;-26
2024/04/02 11:36:07;;;;;;;9.50;1.70;;;;;;;23.19;30.72;96740.70;105478;1262;63280;-27
2024/04/02 11:38:36;;;;;;;1.70;0.60;;;;;;;23.08;30.73;96743.60;105532;1257;77124;-27
2024/04/02 11:41:07;;;;;;;7.50;1.40;;;;;;;22.86;30.52;96773.00;105284;1265;76730;-26
2024/04/02 11:43:35;;;;;;;1.20;0.60;;;;;;;23.07;30.39;96773.59;105416;1262;75294;-27
2024/04/02 11:46:03;;;;;;;5.40;1.20;;;;;;;23.29;30.28;96790.49;105461;1261;62580;-27
2024/04/02 11:48:31;;;;;;;1.60;0.50;;;;;;;23.54;29.95;96807.36;105362;1257;62233;-27
2024/04/02 11:50:58;;;;;;;6.70;1.10;;;;;;;23.52;29.48;96803.21;105285;1257;76822;-27
2024/04/02 11:53:26;;;;;;;4.60;0.80;;;;;;;23.12;29.40;96809.12;105295;1257;78513;-27
2024/04/02 11:55:54;;;;;;;4.60;1.10;;;;;;;22.46;30.46;96803.16;105371;1260;74871;-26
2024/04/02 12:01:08;;;;;;;5.60;0.90;;;;;;;21.53;32.93;96808.60;105490;1257;61919;-27
2024/04/02 12:03:36;;;;;;;1.10;0.50;;;;;;;21.30;33.56;96820.65;105403;1262;78849;-27
2024/04/02 12:06:04;;;;;;;4.20;1.40;;;;;;;20.96;34.59;96811.86;105439;1257;76848;-27
2024/04/02 12:08:32;;;;;;;3.40;0.90;;;;;;;20.76;35.30;96828.81;105296;1257;74151;-27
2024/04/02 12:10:59;;;;;;;1.90;0.50;;;;;;;20.60;35.98;96845.04;105447;1260;62803;-28
2024/04/02 12:13:28;;;;;;;2.10;0.80;;;;;;;20.47;35.83;96845.91;105401;1263;64370;-26
2024/04/02 12:15:55;;;;;;;2.10;0.70;;;;;;;20.28;35.71;96852.40;105453;1257;77320;-26
2024/04/02 12:18:23;;;;;;;3.60;0.70;;;;;;;20.03;35.34;96860.05;105331;1257;75764;-26
2024/04/02 12:20:51;;;;;;;0.70;0.40;;;;;;;20.04;35.81;96861.19;105208;1262;75216;-26
2024/04/02 12:23:19;;;;;;;1.60;0.40;;;;;;;19.87;35.39;96848.33;105299;1260;62196;-26
2024/04/02 12:25:47;;;;;;;6.80;1.20;;;;;;;19.87;35.76;96850.59;105101;1257;63996;-28
2024/04/02 12:28:14;;;;;;;1.10;0.40;;;;;;;20.12;35.28;96870.14;105366;1262;77939;-26
2024/04/02 12:30:42;;;;;;;3.30;0.70;;;;;;;20.19;34.96;96869.72;105387;1262;76795;-26
2024/04/02 12:33:10;;;;;;;0.60;0.20;;;;;;;20.23;34.35;96867.18;105379;1260;75740;-27
2024/04/02 12:35:37;;;;;;;0.20;0.20;;;;;;;19.93;34.63;96864.38;105170;1264;61247;-27
2024/04/02 12:38:05;;;;;;;0.70;0.30;;;;;;;19.54;35.85;96874.05;105162;1265;62694;-27
2024/04/02 12:40:36;;;;;;;0.40;0.30;;;;;;;19.20;36.38;96852.61;105227;1264;76902;-27
2024/04/02 12:43:04;;;;;;;2.60;0.80;;;;;;;18.92;37.36;96848.83;105159;1257;76642;-27
2024/04/02 12:45:31;;;;;;;5.20;0.40;;;;;;;18.66;37.70;96830.12;105367;1260;76752;-27
2024/04/02 12:47:59;;;;;;;4.10;0.30;;;;;;;18.56;37.93;96855.98;105271;1260;62159;-27
2024/04/02 12:50:27;;;;;;;0.20;0.20;;;;;;;18.35;38.21;96869.44;105237;1257;61447;-27
2024/04/02 12:52:55;;;;;;;0.60;0.20;;;;;;;18.44;38.78;96925.39;105328;1263;77393;-27
2024/04/02 12:55:23;;;;;;;5.70;0.50;;;;;;;18.26;38.73;96928.45;105464;1257;77745;-27
2024/04/02 12:57:50;;;;;;;1.00;0.40;;;;;;;17.84;39.19;96927.23;105135;1262;73477;-28
2024/04/02 13:00:18;;;;;;;0.80;0.30;;;;;;;17.47;40.03;96946.71;105192;1257;61698;-28
2024/04/02 13:02:46;;;;;;;2.70;0.40;;;;;;;17.13;40.90;96969.88;105489;1257;61865;-27
2024/04/02 13:05:14;;;;;;;0.30;0.30;;;;;;;17.22;40.86;96996.36;105357;1263;77360;-28
2024/04/02 13:07:42;;;;;;;1.10;0.20;;;;;;;17.32;40.77;97038.80;105283;1262;76799;-28
2024/04/02 13:10:11;;;;;;;0.20;0.20;;;;;;;17.26;40.96;97072.27;105440;1262;74688;-28
2024/04/02 13:12:39;;;;;;;0.10;0.10;;;;;;;17.17;41.76;97089.84;105456;1258;61368;-29
2024/04/02 13:15:07;;;;;;;1.50;0.10;;;;;;;16.82;45.83;97069.48;105514;1257;61860;-26
2024/04/02 13:17:35;;;;;;;0.60;0.20;;;;;;;16.03;50.21;97053.70;105618;1263;76446;-26
2024/04/02 13:20:04;;;;;;;1.40;0.20;;;;;;;15.56;53.35;97049.73;105522;1257;77161;-26
2024/04/02 13:22:32;;;;;;;0.40;0.20;;;;;;;15.05;56.12;97030.95;105359;1262;75488;-26
2024/04/02 13:24:59;;;;;;;0.60;0.30;;;;;;;14.57;59.31;97021.09;105197;1258;62180;-27
2024/04/02 13:27:27;;;;;;;0.20;0.20;;;;;;;14.47;60.61;97034.98;105106;1262;61329;-26
2024/04/02 13:29:55;;;;;;;0.10;0.10;;;;;;;14.41;61.07;97052.61;105361;1262;77118;-26
2024/04/02 13:32:22;;;;;;;1.40;0.70;;;;;;;14.28;61.58;97054.01;105120;1257;76570;-26
2024/04/02 13:34:50;;;;;;;0.70;0.30;;;;;;;14.21;61.86;97050.88;105071;1257;75711;-26
2024/04/02 13:37:18;;;;;;;2.10;0.30;;;;;;;14.13;61.82;97041.56;105380;1263;63247;-26
2024/04/02 13:39:46;;;;;;;1.30;0.60;;;;;;;14.67;60.90;97036.59;105211;1257;61450;-26
2024/04/02 13:42:14;;;;;;;1.50;0.70;;;;;;;15.05;60.10;97033.77;105143;1257;76098;-26